Pagina principale
METAR-TAF:

METAR-TAF

Aeroporti :

Aeroporto di Maribor-Orehova Vas

Maribor, Slovenia

latitudine: 46-29N, longitudine: 015-41E, altezza: 264 m

Osservazione

Il bollettino è stato emesso 12 minuti fa, alle 14:30 UTC
Vento 4 kt da sud/sud-est, variando fra est e ovest/sud-ovest
Temperature 28°C
Umidità 35%
Pressione 1015 hPa
Visibilità 10 km o più
nessuna nube inferiore a 1500 m e nessun cumulonembo

METAR: LJMB 171430Z 15004KT 080V250 CAVOK 28/11 Q1015

Ora: 16:42 (14:42 UTC)

Previsione

Il bollettino è stato emesso 3 ore e 42 minuti fa, alle 11:00 UTC
Previsione valida dal 17 alle 12 UTC al 18 alle 12 UTC
Vento 5 kt da sud
Visibilità 10 km o più
Poco nuvoloso ad un'altezza di 5000 ft

TAF: LJMB 171100Z 1712/1812 17005KT 9999 FEW050

Osservazioni e previsioni meteorologiche di più di 4000 aeroporti (messaggi METAR e TAF).

Le stazioni disponibili sono rappresentate dai dischi gialli e rossi sulla carta.

Puntare il mouse per vedere il nome della stazione.

Clicca sopra per visualizzare le osservazioni e previsioni meteorologiche.

Per cambiare la mappa : fare clic sui pulsanti verdi con una croce nera per ingrandire, il pulsante verde con un trattino per diminuire, o sulla freccia verde per le mappe adiacenti.


METAR-TAF: